Terminal Aerodrome Forecast
Issued by NWS Mt. Holly, NJ

Home | Current Version | Previous Version | Text Only | Print | Product List | Glossary On
Versions: 1 2 3 4 5 6 7 8 9 10 11 12 13 14 15 16 17 18 19 20 21 22 23 24 25 26 27 28 29 30 31 32 33 34
000
FTAK31 PANC 262346
TAFABE
TAF
PABE 262346Z 2700/2724 10007KT P6SM BKN040 BKN060
     FM270600 15015KT P6SM -RA SCT030 BKN060
     FM270900 15015KT P6SM -RA SCT035 OVC060
     FM272100 14012KT P6SM -RA BKN035 OVC060=

USA.gov is the U.S. government's official web portal to all federal, state and local government web resources and services.